ADDS METAR Data INFO
IDs: Format: Raw Decoded Include TAF

Data at: 0210 UTC 14 Dec 2017

KGRR 140153Z 03015KT 1 1/2SM -SN BR FEW013 OVC023 M07/M09 A2948 RMK AO2 SLP994 P0001 T10671089 $
KGRR 140053Z 04014KT 1SM R26L/P6000FT -SN BR OVC018 M07/M08 A2942 RMK AO2 SLP974 P0001 T10671083 $
KGRR 140032Z 05015KT 1 1/4SM -SN BR FEW013 OVC024 M07/M09 A2941 RMK AO2 P0000 T10721089
KGRR 132353Z 06013KT 3/4SM R26L/5000VP6000FT -SN BR VV013 M07/M09 A2939 RMK AO2 SLP964 4/006 P0002 60017 T10721089 11061 21072 53007
KGRR 132343Z 07013KT 3/4SM R26L/P6000FT -SN BR VV014 M07/M09 A2938 RMK AO2 P0001 T10721089
KGRR 132335Z 07012KT 1SM R26L/P6000FT -SN BR BKN014 OVC024 M07/M09 A2939 RMK AO2 P0001 T10671089
KGRR 132328Z 06013KT 2SM -SN BR BKN021 OVC034 M07/M09 A2938 RMK AO2 P0001 T10671089
KGRR 132312Z 07013KT 3SM -SN BR SCT024 OVC040 M07/M09 A2937 RMK AO2 P0001 T10671089
KGRR 132253Z 08013KT 1 1/2SM -SN BR OVC018 M07/M09 A2937 RMK AO2 SLP958 P0002 T10671089
KGRR 132235Z 08012KT 1 1/4SM -SN BR OVC017 M07/M08 A2936 RMK AO2 P0002 T10671083
KGRR 132153Z 08014KT 1/2SM R26L/4500V5500FT SN FZFG VV011 M07/M08 A2937 RMK AO2 SLP957 P0004 T10671083
KGRR 132107Z 08014KT 1/2SM R26L/3000V5000FT SN FZFG VV010 M07/M08 A2936 RMK AO2 P0002 T10671083
KGRR 132053Z 09013KT 1/4SM R26L/2600V2800FT +SN FZFG VV006 M07/M08 A2937 RMK AO2 SLP958 P0007 60009 T10671083 56035
KGRR 132037Z 08013KT 1/4SM R26L/3000V3500FT +SN FZFG VV008 M07/M08 A2937 RMK AO2 P0004 T10671083
KGRR 132029Z 08012KT 1/4SM R26L/3000V3500FT +SN FZFG VV010 M07/M08 A2937 RMK AO2 P0003 T10671083
KGRR 132002Z 10014KT 3/4SM R26L/6000VP6000FT -SN BR BKN014 OVC022 M07/M08 A2937 RMK AO2 P0000 T10671083
KGRR 131953Z 10012KT 1SM R26L/P6000FT -SN BR BKN018 OVC040 M07/M08 A2937 RMK AO2 SLP959 P0002 T10671083
KGRR 131950Z 10013KT 1 3/4SM -SN BR BKN024 OVC042 M07/M09 A2937 RMK AO2 P0002
KGRR 131934Z 10013KT 3SM -SN BR BKN020 OVC042 M07/M08 A2938 RMK AO2 P0002 T10671083
KGRR 131901Z 11012KT 1/2SM R26L/3000VP6000FT SN FZFG SCT008 OVC012 M07/M09 A2941 RMK AO2 P0001 T10671089
KGRR 131853Z 11010G21KT 1SM R26L/6000VP6000FT -SN BKN024 OVC049 M07/M09 A2942 RMK AO2 SLP974 P0000 T10671094
KGRR 131841Z 11014G23KT 1 3/4SM -SN BKN028 BKN042 OVC055 M07/M10 A2942 RMK AO2 P0000 T10671100
KGRR 131753Z 12015KT 9SM -SN OVC035 M07/M09 A2947 RMK AO2 SLP994 4/003 P0001 60011 T10671094 11067 21078 58045 $
KGRR 131653Z 12013KT 7SM -SN FEW014 OVC034 M07/M09 A2953 RMK AO2 VIS 2 1/2 RWY 8R PRESFR SLP013 P0002 T10671089 $
KGRR 131634Z 12012KT 6SM -SN BR FEW013 OVC032 M07/M08 A2956 RMK AO2 P0002 T10721078
KGRR 131615Z 12013KT 1SM R26L/2600VP6000FT -SN BR BKN010 OVC031 M07/M08 A2958 RMK AO2 PRESFR P0002 T10721078
KGRR 131553Z 13009KT 1/4SM R26L/2600V3500FT SN FZFG VV011 M08/M08 A2961 RMK AO2 SLP040 SNINCR 1/3 P0002 T10781083
KGRR 131548Z 13012KT 1/4SM R26L/2600V3500FT +SN FZFG VV011 M08/M08 A2961 RMK AO2 P0002
KGRR 131453Z 13010KT 1/2SM R26L/3500V4500FT SN FZFG VV014 M08/M08 A2964 RMK AO2 SLP050 P0003 60006 T10781083 56032
KGRR 131353Z 14007KT 3/4SM R26L/3500VP6000FT -SN BR VV017 M08/M08 A2968 RMK AO2 SNE1259B19 SLP064 P0002 T10781083 $
KGRR 131336Z 15008KT 3/4SM R26L/4000VP6000FT -SN BR BKN027 OVC036 M07/M08 A2969 RMK AO2 TWR VIS 2 SNE1259B19 P0001 T10721083 $
KGRR 131323Z 15010KT 1 1/2SM -SN BR BKN034 OVC043 M07/M09 A2969 RMK AO2 TWR VIS 2 SNE1259B19 P0000 T10721089
KGRR 131253Z 14009KT 4SM -SN BR OVC038 M07/M09 A2970 RMK AO2 PRESFR SLP069 P0001 T10721089
KGRR 131153Z 16008KT 9SM -SN BKN040 OVC048 M08/M09 A2974 RMK AO2 SLP083 4/002 P0000 60000 T10781089 11078 21083 56028
KGRR 131053Z 16008KT 10SM -SN BKN060 OVC080 M08/M09 A2976 RMK AO2 SNB49 SLP089 P0000 T10781094
KGRR 130953Z AUTO 15006KT 10SM OVC065 M08/M09 A2979 RMK AO2 SLP101 T10831094
KGRR 130853Z AUTO 18006KT 10SM OVC035 M08/M09 A2982 RMK AO2 SLP113 T10831094 56014
KGRR 130753Z AUTO 19006KT 10SM BKN042 OVC120 M08/M09 A2983 RMK AO2 SLP116 T10831094
KGRR 130653Z AUTO 22006KT 10SM FEW026 FEW031 OVC041 M08/M11 A2984 RMK AO2 SLP118 T10831106
KGRR 130553Z AUTO 25005KT 10SM OVC042 M08/M11 A2986 RMK AO2 SLP127 60000 T10781111 11072 21083 58015
KGRR 130453Z 27005KT 10SM OVC043 M08/M12 A2988 RMK AO2 SLP132 LAST T10781122 410111083
KGRR 130353Z 32006KT 10SM OVC041 M08/M12 A2990 RMK AO2 SLP139 T10781122
KGRR 130253Z 35008KT 10SM OVC042 M08/M12 A2991 RMK AO2 SLP142 60000 T10781122 58008
KGRR 130153Z 32009KT 10SM OVC040 M08/M12 A2993 RMK AO2 SLP148 T10781117
KGRR 130053Z 33011KT 10SM OVC042 M08/M11 A2993 RMK AO2 SNE03 SLP150 P0000 T10781111
KGRR 122353Z 32007KT 10SM -SN OVC044 M08/M11 A2994 RMK AO2 SNB49 SLP151 4/002 P0000 60000 T10781111 11056 21083 51008
KGRR 122253Z 33009KT 10SM BKN048 M08/M11 A2993 RMK AO2 SNE40 SLP150 P0000 T10831106
KGRR 122153Z 30013KT 4SM -SN FEW016 BKN040 M08/M12 A2993 RMK AO2 SNB08E34B51 SLP148 P0000 T10781117
KGRR 122053Z 31016KT 10SM FEW016 BKN038 M07/M14 A2991 RMK AO2 SLP142 PRESENT WX VCSH SW 60000 T10721144 56000
KGRR 121953Z 31012G21KT 10SM FEW016 BKN038 M06/M13 A2991 RMK AO2 SNB19E47 SLP141 P0000 T10611133
KGRR 121853Z 31013KT 10SM BKN039 M06/M13 A2991 RMK AO2 SLP140 T10611128
KGRR 121753Z 31014G20KT 10SM BKN042 M07/M14 A2991 RMK AO2 PK WND 33026/1724 SLP140 4/002 T10671139 11061 21078 58006
KGRR 121653Z 32016G24KT 10SM BKN041 M07/M14 A2993 RMK AO2 SLP145 T10671139
KGRR 121553Z 32013G22KT 10SM SCT040 BKN050 M07/M14 A2994 RMK AO2 PK WND 32028/1536 SLP149 T10721139
KGRR 121453Z 33018G29KT 10SM FEW025 BKN055 M07/M14 A2993 RMK AO2 PK WND 32029/1448 SLP146 PRESENT WX VCSH E T10721139 51014 $